Data for 11/25/2012

Time Sea-Level Adjusted Pressure Absolute Pressure Temperature Relative Humidity Dew Point   
(mb) (inHg) (mb) (inHg) (C) (F) (%) (C) (F)
00:05 1016 30 846 24.98 2.6 36.7 65 -3.3 26.1
00:10 1016 30 845 24.95 2.7 36.8 65 -3.3 26.1
00:15 1016 30 845 24.95 2.7 36.8 65 -3.3 26.1
00:20 1016 30 845 24.95 2.7 36.8 65 -3.3 26.1
00:25 1016 30 845 24.95 2.7 36.9 65 -3.3 26.1
00:30 1016 30 845 24.95 2.7 36.9 65 -3.3 26.1
00:35 1016 30 845 24.95 2.9 37.3 62 -3.6 25.5
00:40 1016 30 845 24.95 3.2 37.7 62 -3.4 25.8
00:45 1016 30 845 24.95 3.1 37.5 63 -3.4 25.9
00:50 1016 30 845 24.95 3 37.4 63 -3.4 25.8
00:55 1016 30 845 24.95 3 37.4 62 -3.5 25.7
01:00 1016 30 845 24.95 3 37.3 63 -3.3 26
01:05 1016 30 845 24.95 3 37.4 63 -3.3 26.1
01:10 1016 30 845 24.95 2.8 37.1 65 -3.2 26.3
01:15 1016 30 845 24.95 2.6 36.7 66 -3.2 26.2
01:20 1016 30 845 24.95 2.4 36.4 66 -3.3 26
01:25 1016 30 845 24.95 2.5 36.5 66 -3.3 26.1
01:30 1015 29.97 845 24.95 2.6 36.7 65 -3.3 26.1
01:35 1015 29.97 845 24.95 2.7 36.9 65 -3.2 26.2
01:40 1015 29.97 845 24.95 2.8 37.1 64 -3.3 26
01:45 1015 29.97 845 24.95 2.8 37 65 -3.2 26.2
01:50 1015 29.97 844 24.92 2.7 36.9 64 -3.3 26
01:55 1015 29.97 845 24.95 2.7 36.9 65 -3.2 26.2
02:00 1015 29.97 845 24.95 2.6 36.6 66 -3.2 26.3
02:05 1015 29.97 845 24.95 2.4 36.3 69 -2.8 27
02:10 1015 29.97 844 24.92 2 35.7 70 -2.8 27
02:15 1015 29.97 844 24.92 1.8 35.3 72 -2.7 27.1
02:20 1015 29.97 844 24.92 1.7 35 73 -2.7 27.1
02:25 1015 29.97 844 24.92 1.6 34.8 73 -2.8 27
02:30 1015 29.97 844 24.92 1.6 34.9 73 -2.8 27
02:35 1015 29.97 844 24.92 1.6 34.8 74 -2.7 27.2
02:40 1015 29.97 844 24.92 1.4 34.6 74 -2.7 27.1
02:45 1015 29.97 844 24.92 1.4 34.4 73 -2.9 26.8
02:50 1015 29.97 844 24.92 1.5 34.7 72 -3.1 26.4
02:55 1015 29.97 844 24.92 1.7 35 71 -3.1 26.4
03:00 1015 29.97 844 24.92 1.7 35.1 71 -3 26.6
03:05 1015 29.97 844 24.92 1.8 35.3 71 -2.9 26.7
03:10 1015 29.97 844 24.92 1.9 35.4 71 -2.9 26.8
03:15 1015 29.97 844 24.92 1.9 35.4 71 -2.8 26.9
03:20 1015 29.97 844 24.92 1.9 35.5 71 -2.8 27
03:25 1015 29.97 844 24.92 1.9 35.5 71 -2.9 26.9
03:30 1015 29.97 844 24.92 2 35.6 70 -2.9 26.8
03:35 1015 29.97 844 24.92 2 35.7 70 -2.9 26.7
03:40 1015 29.97 844 24.92 2.1 35.7 70 -2.9 26.7
03:45 1015 29.97 844 24.92 2 35.7 70 -2.9 26.7
03:50 1015 29.97 844 24.92 2 35.6 70 -2.9 26.8
03:55 1015 29.97 844 24.92 2 35.6 70 -2.9 26.8
04:00 1015 29.97 844 24.92 1.9 35.4 71 -2.9 26.8
04:05 1015 29.97 844 24.92 1.8 35.3 71 -2.9 26.8
04:10 1015 29.97 844 24.92 1.7 35.1 72 -2.7 27.1
04:15 1015 29.97 844 24.92 1.4 34.5 74 -2.7 27.2
04:20 1015 29.97 844 24.92 1.2 34.2 75 -2.7 27.1
04:25 1015 29.97 844 24.92 1.3 34.3 75 -2.7 27.1
04:30 1015 29.97 844 24.92 1.3 34.4 75 -2.7 27.1
04:35 1015 29.97 844 24.92 1.3 34.4 75 -2.7 27.1
04:40 1015 29.97 844 24.92 1.4 34.5 74 -2.7 27.1
04:45 1015 29.97 844 24.92 1.4 34.5 74 -2.7 27.1
04:50 1015 29.97 844 24.92 1.3 34.4 75 -2.5 27.4
04:55 1015 29.97 844 24.92 1.3 34.3 75 -2.6 27.3
05:00 1015 29.97 844 24.92 1.3 34.3 75 -2.6 27.3
05:05 1015 29.97 844 24.92 1.2 34.2 76 -2.6 27.3
05:10 1015 29.97 844 24.92 1.2 34.2 76 -2.6 27.4
05:15 1015 29.97 844 24.92 1.1 34 77 -2.5 27.5
05:20 1015 29.97 844 24.92 1 33.8 78 -2.5 27.5
05:25 1015 29.97 844 24.92 0.9 33.7 79 -2.4 27.7
05:30 1015 29.97 844 24.92 1 33.8 77 -2.5 27.5
05:35 1015 29.97 844 24.92 1.1 33.9 77 -2.4 27.6
05:40 1015 29.97 844 24.92 1 33.9 78 -2.3 27.9
05:45 1015 29.97 844 24.92 1 33.8 78 -2.4 27.7
05:50 1015 29.97 844 24.92 0.9 33.7 80 -2.1 28.2
05:55 1015 29.97 844 24.92 0.9 33.6 82 -1.9 28.6
06:00 1015 29.97 844 24.92 0.8 33.4 82 -1.9 28.6
06:05 1015 29.97 844 24.92 0.8 33.5 81 -2.1 28.3
06:10 1015 29.97 844 24.92 0.8 33.4 81 -2.1 28.3
06:15 1015 29.97 844 24.92 0.8 33.4 82 -2 28.5
06:20 1015 29.97 844 24.92 0.9 33.7 81 -1.9 28.5
06:25 1015 29.97 844 24.92 1 33.7 81 -1.9 28.6
06:30 1015 29.97 844 24.92 0.9 33.7 81 -1.9 28.6
06:35 1015 29.97 844 24.92 0.9 33.6 81 -2 28.4
06:40 1015 29.97 844 24.92 0.9 33.7 82 -1.9 28.6
06:45 1015 29.97 844 24.92 0.9 33.6 83 -1.8 28.8
06:50 1015 29.97 844 24.92 0.8 33.4 84 -1.6 29.1
06:55 1015 29.97 844 24.92 0.7 33.2 85 -1.6 29.2
07:00 1015 29.97 844 24.92 0.6 33 86 -1.5 29.2
07:05 1015 29.97 844 24.92 0.4 32.7 87 -1.5 29.3
07:10 1015 29.97 844 24.92 0.4 32.7 87 -1.5 29.3
07:15 1015 29.97 844 24.92 0.3 32.6 89 -1.3 29.6
07:20 1015 29.97 844 24.92 0.3 32.6 89 -1.2 29.8
07:25 1015 29.97 844 24.92 0.2 32.4 90 -1.2 29.9
07:30 1015 29.97 844 24.92 0.1 32.2 91 -1.1 30
07:35 1015 29.97 844 24.92 0 32.1 93 -1 30.1
07:40 1015 29.97 844 24.92 -0.1 31.9 94 -1 30.2
07:45 1015 29.97 844 24.92 -0.1 31.9 94 -0.9 30.3
07:50 1015 29.97 844 24.92 -0.1 31.9 94 -0.9 30.4
07:55 1015 29.97 844 24.92 -0.1 31.9 94 -0.9 30.4
08:00 1015 29.97 844 24.92 -0.1 31.8 94 -0.9 30.3
08:05 1015 29.97 844 24.92 -0.2 31.7 95 -0.9 30.3
08:10 1015 29.97 844 24.92 -0.2 31.6 95 -0.9 30.3
08:15 1015 29.97 844 24.92 -0.3 31.5 95 -1 30.3
08:20 1015 29.97 845 24.95 -0.3 31.5 95 -0.9 30.3
08:25 1015 29.97 845 24.95 -0.2 31.6 95 -0.9 30.4
08:30 1015 29.97 845 24.95 -0.2 31.6 95 -0.9 30.4
08:35 1015 29.97 845 24.95 -0.2 31.7 95 -0.9 30.4
08:40 1016 30 845 24.95 -0.2 31.7 95 -0.9 30.4
08:45 1016 30 845 24.95 -0.2 31.6 95 -0.9 30.4
08:50 1016 30 845 24.95 -0.2 31.6 95 -0.9 30.3
08:55 1016 30 845 24.95 -0.3 31.4 95 -1 30.2
09:00 1016 30 845 24.95 -0.4 31.2 95 -1.1 30
09:05 1016 30 845 24.95 -0.6 31 95 -1.2 29.8
09:10 1016 30 845 24.95 -0.7 30.8 95 -1.4 29.5
09:15 1016 30 845 24.95 -0.8 30.6 95 -1.4 29.4
09:20 1016 30 845 24.95 -0.8 30.6 95 -1.5 29.3
09:25 1016 30 845 24.95 -0.9 30.5 96 -1.5 29.3
09:30 1016 30 845 24.95 -0.9 30.4 96 -1.5 29.3
09:35 1016 30 846 24.98 -0.9 30.5 95 -1.5 29.3
09:40 1017 30.03 846 24.98 -0.9 30.4 95 -1.7 29
09:45 1016 30 846 24.98 -0.9 30.3 94 -1.8 28.7
09:50 1016 30 846 24.98 -0.9 30.3 93 -1.9 28.6
09:55 1017 30.03 846 24.98 -1 30.2 94 -1.9 28.7
10:00 1017 30.03 846 24.98 -1.1 30.1 94 -1.9 28.6
10:05 1017 30.03 846 24.98 -1.2 29.8 94 -2 28.4
10:10 1017 30.03 846 24.98 -1.3 29.7 95 -2 28.4
10:15 1017 30.03 846 24.98 -1.3 29.7 95 -2 28.4
10:20 1017 30.03 846 24.98 -1.2 29.8 95 -2 28.4
10:25 1017 30.03 846 24.98 -1.2 29.8 94 -2 28.4
10:30 1017 30.03 846 24.98 -1.3 29.8 94 -2.1 28.3
10:35 1017 30.03 846 24.98 -1.2 29.8 93 -2.2 28.1
10:40 1017 30.03 846 24.98 -1.4 29.5 93 -2.3 27.8
10:45 1017 30.03 846 24.98 -1.5 29.3 93 -2.5 27.5
10:50 1017 30.03 846 24.98 -1.6 29.2 93 -2.6 27.4
10:55 1017 30.03 846 24.98 -1.6 29.1 93 -2.6 27.4
11:00 1017 30.03 846 24.98 -1.6 29.1 92 -2.8 27
11:05 1017 30.03 846 24.98 -1.5 29.3 91 -2.8 26.9
11:10 1017 30.03 846 24.98 -1.4 29.5 89 -3 26.6
11:15 1017 30.03 847 25.01 -1.4 29.5 88 -3.1 26.4
11:20 1017 30.03 847 25.01 -1.4 29.5 86 -3.4 25.9
11:25 1017 30.03 847 25.01 -1.3 29.7 86 -3.4 25.9
11:30 1018 30.06 847 25.01 -1.2 29.8 85 -3.4 25.8
11:35 1018 30.06 847 25.01 -1.1 30 84 -3.5 25.6
11:40 1018 30.06 847 25.01 -1.1 30 84 -3.5 25.7
11:45 1018 30.06 847 25.01 -1 30.3 82 -3.6 25.5
11:50 1018 30.06 847 25.01 -1 30.3 83 -3.5 25.6
11:55 1018 30.06 847 25.01 -1 30.3 81 -3.7 25.3
12:00 1018 30.06 847 25.01 -1 30.1 80 -4 24.8
12:05 1018 30.06 847 25.01 -1.1 30 81 -3.9 25
12:10 1018 30.06 847 25.01 -1.1 30 82 -3.9 25
12:15 1018 30.06 847 25.01 -1.1 30 83 -3.7 25.3
12:20 1018 30.06 847 25.01 -1.1 30 83 -3.7 25.4
12:25 1018 30.06 847 25.01 -1.1 30 83 -3.6 25.5
12:30 1018 30.06 847 25.01 -1 30.2 84 -3.4 25.8
12:35 1018 30.06 847 25.01 -1.1 30 83 -3.6 25.6
12:40 1018 30.06 847 25.01 -1.2 29.9 84 -3.5 25.7
12:45 1018 30.06 847 25.01 -1.2 29.9 83 -3.7 25.3
12:50 1018 30.06 847 25.01 -1.1 30 82 -3.7 25.3
12:55 1018 30.06 847 25.01 -1 30.1 82 -3.7 25.4
13:00 1018 30.06 847 25.01 -1 30.2 83 -3.5 25.7
13:05 1018 30.06 847 25.01 -1.1 30.1 84 -3.4 25.8
13:10 1018 30.06 847 25.01 -1.1 30.1 85 -3.2 26.2
13:15 1018 30.06 847 25.01 -1.1 30.1 86 -3.2 26.3
13:20 1018 30.06 847 25.01 -1.2 29.8 86 -3.3 26
13:25 1018 30.06 847 25.01 -1.3 29.6 87 -3.3 26.1
13:30 1017 30.03 847 25.01 -1.4 29.5 87 -3.4 26
13:35 1017 30.03 847 25.01 -1.4 29.5 87 -3.2 26.2
13:40 1017 30.03 847 25.01 -1.4 29.4 85 -3.6 25.5
13:45 1017 30.03 847 25.01 -1.3 29.6 85 -3.6 25.6
13:50 1017 30.03 847 25.01 -1.2 29.8 85 -3.5 25.7
13:55 1018 30.06 847 25.01 -1 30.3 84 -3.4 25.9
14:00 1018 30.06 847 25.01 -0.9 30.3 83 -3.5 25.6
14:05 1018 30.06 847 25.01 -1.1 30.1 81 -4 24.9
14:10 1018 30.06 847 25.01 -1.1 30 81 -3.9 25
14:15 1018 30.06 847 25.01 -1.1 30.1 81 -3.9 25.1
14:20 1018 30.06 847 25.01 -1.1 29.9 81 -3.9 24.9
14:25 1018 30.06 847 25.01 -0.9 30.3 81 -3.8 25.2
14:30 1018 30.06 847 25.01 -0.7 30.7 79 -4 24.8
14:35 1017 30.03 847 25.01 -1 30.2 80 -4 24.8
14:40 1018 30.06 847 25.01 -1.1 30.1 80 -4 24.7
14:45 1018 30.06 847 25.01 -0.9 30.5 78 -4.2 24.4
14:50 1018 30.06 847 25.01 -1.3 29.7 82 -4 24.7
14:55 1018 30.06 847 25.01 -1.2 29.9 81 -4 24.8
15:00 1018 30.06 847 25.01 -1.2 29.8 83 -3.8 25.1
15:05 1018 30.06 847 25.01 -1.3 29.7 82 -4 24.8
15:10 1018 30.06 847 25.01 -1.4 29.4 82 -4.1 24.6
15:15 1018 30.06 847 25.01 -1.6 29.1 81 -4.4 24.1
15:20 1018 30.06 847 25.01 -1.5 29.2 80 -4.5 23.8
15:25 1018 30.06 847 25.01 -1.5 29.3 79 -4.7 23.5
15:30 1018 30.06 847 25.01 -1.6 29.2 81 -4.4 24
15:35 1018 30.06 847 25.01 -1.5 29.2 80 -4.6 23.7
15:40 1018 30.06 847 25.01 -1.5 29.2 78 -4.9 23.2
15:45 1018 30.06 847 25.01 -1.5 29.4 79 -4.7 23.6
15:50 1018 30.06 847 25.01 -1.4 29.4 76 -5.1 22.9
15:55 1018 30.06 847 25.01 -1.4 29.5 77 -4.8 23.3
16:00 1018 30.06 847 25.01 -1.5 29.3 78 -4.9 23.2
16:05 1018 30.06 847 25.01 -1.5 29.2 78 -5 23
16:10 1018 30.06 847 25.01 -1.5 29.2 78 -4.9 23.3
16:15 1018 30.06 847 25.01 -1.7 29 77 -5.2 22.6
16:20 1018 30.06 847 25.01 -1.7 28.9 78 -5.1 22.8
16:25 1018 30.06 847 25.01 -1.8 28.8 78 -5.1 22.8
16:30 1018 30.06 847 25.01 -1.7 28.9 78 -5.1 22.8
16:35 1018 30.06 847 25.01 -1.8 28.7 79 -5 23
16:40 1018 30.06 847 25.01 -1.9 28.5 78 -5.2 22.6
16:45 1018 30.06 847 25.01 -1.7 28.9 77 -5.3 22.5
16:50 1018 30.06 848 25.04 -1.5 29.3 75 -5.4 22.4
16:55 1018 30.06 848 25.04 -1.5 29.4 76 -5.2 22.6
17:00 1018 30.06 848 25.04 -1.5 29.3 78 -4.9 23.2
17:05 1019 30.09 848 25.04 -1.4 29.4 79 -4.7 23.6
17:10 1019 30.09 848 25.04 -1.4 29.4 80 -4.4 24
17:15 1019 30.09 848 25.04 -1.4 29.4 81 -4.3 24.3
17:20 1019 30.09 848 25.04 -1.4 29.5 80 -4.3 24.2
17:25 1019 30.09 848 25.04 -1.3 29.6 81 -4.2 24.4
17:30 1019 30.09 848 25.04 -1.2 29.9 77 -4.7 23.5
17:35 1019 30.09 848 25.04 -1.2 29.9 77 -4.6 23.6
17:40 1019 30.09 848 25.04 -1.2 29.9 76 -4.9 23.2
17:45 1019 30.09 848 25.04 -1.2 29.9 75 -5 22.9
17:50 1019 30.09 848 25.04 -1.2 29.8 72 -5.6 21.9
17:55 1019 30.09 848 25.04 -1.3 29.7 72 -5.7 21.7
18:00 1019 30.09 849 25.07 -1.4 29.5 73 -5.7 21.7
18:05 1019 30.09 849 25.07 -1.4 29.4 72 -5.9 21.4
18:10 1019 30.09 849 25.07 -1.4 29.4 72 -5.8 21.6
18:15 1020 30.12 849 25.07 -1.6 29.1 74 -5.7 21.7
18:20 1020 30.12 849 25.07 -1.7 28.9 73 -6 21.3
18:25 1020 30.12 849 25.07 -1.7 28.9 74 -5.8 21.5
18:30 1020 30.12 849 25.07 -1.7 29 74 -5.7 21.8
18:35 1020 30.12 849 25.07 -1.6 29.1 74 -5.6 21.9
18:40 1020 30.12 849 25.07 -1.6 29.2 76 -5.2 22.6
18:45 1020 30.12 849 25.07 -1.5 29.2 77 -5.1 22.9
18:50 1020 30.12 849 25.07 -1.6 29.2 79 -4.8 23.4
18:55 1020 30.12 849 25.07 -1.5 29.2 78 -5 23.1
19:00 1020 30.12 849 25.07 -1.5 29.3 77 -5 22.9
19:05 1020 30.12 850 25.1 -1.5 29.3 79 -4.7 23.6
19:10 1020 30.12 850 25.1 -1.6 29.1 80 -4.6 23.7
19:15 1020 30.12 850 25.1 -1.7 29 82 -4.4 24.1
19:20 1020 30.12 850 25.1 -1.8 28.7 79 -5.1 22.9
19:25 1021 30.15 850 25.1 -1.9 28.5 77 -5.4 22.2
19:30 1021 30.15 850 25.1 -2 28.4 70 -6.7 19.9
19:35 1021 30.15 850 25.1 -1.9 28.5 64 -7.8 17.9
19:40 1021 30.15 850 25.1 -1.8 28.7 61 -8.3 17.1
19:45 1021 30.15 850 25.1 -1.9 28.6 63 -8 17.5
19:50 1021 30.15 850 25.1 -2.1 28.3 61 -8.5 16.6
19:55 1021 30.15 850 25.1 -2.1 28.2 60 -8.8 16.1
20:00 1021 30.15 850 25.1 -2.2 28.1 59 -9.2 15.4
20:05 1021 30.15 850 25.1 -2.2 28 60 -8.9 16
20:10 1021 30.15 850 25.1 -2.3 27.9 62 -8.7 16.3
20:15 1021 30.15 850 25.1 -2.4 27.8 61 -8.9 16
20:20 1021 30.15 850 25.1 -2.4 27.7 62 -8.7 16.3
20:25 1021 30.15 851 25.13 -2.4 27.6 62 -8.7 16.3
20:30 1021 30.15 851 25.13 -2.5 27.6 61 -8.9 16
20:35 1021 30.15 851 25.13 -2.4 27.6 61 -8.9 16
20:40 1022 30.18 851 25.13 -2.4 27.6 61 -9 15.9
20:45 1022 30.18 851 25.13 -2.4 27.6 61 -8.9 16
20:50 1022 30.18 851 25.13 -2.4 27.6 61 -9 15.8
20:55 1022 30.18 851 25.13 -2.4 27.7 62 -8.7 16.3
21:00 1022 30.18 851 25.13 -2.4 27.6 62 -8.6 16.4
21:05 1022 30.18 851 25.13 -2.4 27.6 65 -8.2 17.3
21:10 1022 30.18 851 25.13 -2.5 27.6 62 -8.7 16.3
21:15 1022 30.18 851 25.13 -2.5 27.4 62 -8.8 16.1
21:20 1022 30.18 851 25.13 -2.6 27.4 62 -8.8 16.1
21:25 1022 30.18 851 25.13 -2.5 27.4 62 -8.9 15.9
21:30 1022 30.18 851 25.13 -2.6 27.4 62 -8.8 16.2
21:35 1022 30.18 851 25.13 -2.6 27.3 62 -8.9 15.9
21:40 1022 30.18 851 25.13 -2.7 27.2 62 -9 15.8
21:45 1022 30.18 851 25.13 -2.7 27.1 62 -8.9 15.9
21:50 1022 30.18 851 25.13 -2.7 27.1 62 -9 15.8
21:55 1022 30.18 851 25.13 -2.7 27.2 63 -8.8 16.2
22:00 1022 30.18 852 25.16 -2.7 27.1 60 -9.4 15.2
22:05 1022 30.18 852 25.16 -2.8 26.9 61 -9.2 15.4
22:10 1022 30.18 852 25.16 -2.9 26.8 63 -9 15.7
22:15 1022 30.18 852 25.16 -2.9 26.8 63 -9 15.8
22:20 1022 30.18 852 25.16 -2.8 26.9 62 -9.2 15.4
22:25 1023 30.21 852 25.16 -2.7 27.1 59 -9.6 14.7
22:30 1023 30.21 852 25.16 -2.7 27.2 61 -9.2 15.4
22:35 1023 30.21 852 25.16 -2.8 27 62 -9.2 15.5
22:40 1023 30.21 852 25.16 -2.9 26.8 65 -8.6 16.6
22:45 1023 30.21 852 25.16 -3.2 26.3 67 -8.4 16.8
22:50 1023 30.21 852 25.16 -3.2 26.2 69 -8.2 17.2
22:55 1023 30.21 852 25.16 -3.3 26.1 69 -8.3 17.1
23:00 1023 30.21 852 25.16 -3.4 26 67 -8.6 16.5
23:05 1023 30.21 852 25.16 -3.4 25.8 67 -8.8 16.2
23:10 1023 30.21 852 25.16 -3.6 25.5 70 -8.3 17
23:15 1023 30.21 852 25.16 -3.9 25 71 -8.5 16.7
23:20 1023 30.21 852 25.16 -4.1 24.5 69 -9 15.7
23:25 1023 30.21 852 25.16 -4.1 24.6 66 -9.5 14.8
23:30 1023 30.21 852 25.16 -3.7 25.4 64 -9.6 14.8
23:35 1023 30.21 852 25.16 -3.7 25.4 66 -9.2 15.4
23:40 1023 30.21 853 25.19 -3.8 25.1 65 -9.4 15.1
23:45 1023 30.21 853 25.19 -3.9 25 65 -9.6 14.7
23:50 1023 30.21 853 25.19 -3.8 25.1 64 -9.7 14.5
23:55 1023 30.21 853 25.19 -3.9 25 64 -9.6 14.7
24:00 1023 30.21 853 25.19 -4 24.8 65 -9.6 14.6